KADM/ADM METAR and TAF weather

Enter ICAO airport designator
Station Type Date Time Source
KADM METAR 2021/09/23 23:50 UTC NOAA

KADM 232350Z 00000KT 10SM CLR 25/06 A3002


Station Type Date Time Source
KADM Decoded METAR 2021/09/23 23:50 UTC NOAA

Ardmore, Ardmore Municipal Airport, OK, United States (KADM) 34-18-11N 097-01-10W
Sep 23, 2021 - 07:50 PM EDT / 2021.09.23 2350 UTC
Wind: Calm:0
Visibility: 10 mile(s):0
Sky conditions: clear
Temperature: 77 F (25 C)
Dew Point: 42 F (6 C)
Relative Humidity: 29%
Pressure (altimeter): 30.02 in. Hg (1016 hPa)
ob: KADM 232350Z 00000KT 10SM CLR 25/06 A3002
cycle: 0

Station Type Date Time Source
KADM TAF UTC NOAA

Error!

Example: see airport list